Date,TemperatureHighF,TemperatureAvgF,TemperatureLowF,DewpointHighF,DewpointAvgF,DewpointLowF,HumidityHigh,HumidityAvg,HumidityLow,PressureMaxIn,PressureMinIn,WindSpeedMaxMPH,WindSpeedAvgMPH,GustSpeedMaxMPH,PrecipitationSumIn
2013-1-1,54.1,38.0,24.1,33.0,25.6,21.0,100,66,27,27.52,27.38,10,1,0,0.00
2013-1-2,60.6,46.4,29.2,28.0,23.1,21.0,87,44,21,27.42,27.28,17,2,0,0.00
2013-1-3,58.6,47.6,35.1,28.0,24.9,18.0,67,41,27,27.46,27.30,20,4,0,0.00
2013-1-4,58.0,46.4,35.6,28.0,25.0,23.0,62,43,26,27.56,27.45,20,4,0,0.00
2013-1-5,63.6,41.7,23.6,31.0,23.3,14.0,94,54,16,27.61,27.49,11,1,0,0.00
2013-1-6,66.1,44.5,25.2,26.0,20.3,14.0,81,44,13,27.50,27.26,11,1,0,0.00
2013-1-7,58.0,39.6,22.7,33.0,25.8,21.0,97,62,28,27.27,27.13,10,1,0,0.00
2013-1-8,60.5,39.0,22.7,32.0,26.5,23.0,97,66,27,27.42,27.22,8,0,0,0.00
2013-1-9,70.8,48.0,24.6,31.0,19.0,11.0,93,44,9,27.51,27.35,14,2,0,0.00
2013-1-10,67.5,48.5,27.1,32.0,22.7,18.0,77,40,16,27.38,27.13,16,1,0,0.00
2013-1-11,52.7,37.1,19.9,36.0,23.8,11.0,99,63,25,27.39,27.19,13,2,0,0.02
2013-1-12,46.9,27.8,13.4,24.0,12.9,4.0,97,59,17,27.41,27.28,11,1,0,0.00
2013-1-13,48.7,28.0,12.6,18.0,10.1,0.0,88,52,12,27.41,27.29,9,1,0,0.00
2013-1-14,43.4,26.8,9.9,21.0,9.4,4.0,92,52,20,27.50,27.34,14,1,0,0.00
2013-1-15,46.4,26.7,7.2,8.0,4.3,0.0,86,44,13,27.62,27.50,10,1,0,0.00
2013-1-16,61.4,42.3,16.7,11.0,7.4,4.0,61,26,11,27.64,27.49,17,2,0,0.00
2013-1-17,66.9,57.2,41.8,16.0,12.5,8.0,27,16,11,27.55,27.43,25,5,0,0.00
2013-1-18,74.9,58.5,36.2,18.0,16.2,11.0,47,20,9,27.52,27.39,16,3,0,0.00
2013-1-19,77.8,52.9,29.7,24.0,20.1,16.0,61,32,11,27.54,27.41,7,1,0,0.00
2013-1-20,78.3,50.8,29.9,35.0,26.0,21.0,72,43,16,27.48,27.32,8,1,0,0.00
2013-1-21,81.0,54.0,33.3,32.0,29.0,26.0,77,45,16,27.44,27.31,10,1,0,0.00
2013-1-22,81.4,56.1,33.6,35.0,27.5,23.0,80,41,12,27.49,27.38,10,1,0,0.00
2013-1-23,81.2,57.3,36.0,31.0,27.6,24.0,66,37,14,27.54,27.41,8,1,0,0.00
2013-1-24,65.3,56.2,45.6,54.0,41.1,29.0,82,58,32,27.57,27.47,6,0,0,0.02
2013-1-25,77.5,61.9,44.6,48.0,44.7,41.0,94,58,29,27.51,27.32,8,0,7,0.00
2013-1-26,68.5,58.5,50.4,59.0,51.9,46.0,98,80,48,27.34,27.25,17,1,17,0.62
2013-1-27,65.5,55.9,44.2,57.0,48.0,44.0,100,77,49,27.36,27.26,8,1,8,0.00
2013-1-28,56.1,50.2,42.4,49.0,40.9,29.0,91,71,51,27.33,27.26,18,2,18,0.08
2013-1-29,50.9,42.2,32.8,36.0,26.9,18.0,82,57,28,27.50,27.33,16,2,17,0.00
2013-1-30,58.3,40.2,24.3,33.0,24.3,16.0,98,60,20,27.63,27.49,10,1,10,0.00
2013-1-31,64.9,43.1,26.6,35.0,28.9,24.0,91,62,25,27.57,27.42,8,1,10,0.00
2013-2-1,74.0,46.3,26.5,37.0,28.3,21.0,97,61,14,27.54,27.42,12,1,12,0.00
2013-2-2,77.6,50.7,27.3,37.0,28.9,18.0,97,55,12,27.57,27.41,9,1,11,0.06
2013-2-3,70.0,55.9,43.9,40.0,34.6,26.0,77,49,21,27.47,27.29,6,0,6,0.00
2013-2-4,71.2,52.3,39.1,42.0,37.6,35.0,91,63,29,27.38,27.26,10,1,10,0.00
2013-2-5,74.7,53.0,33.8,47.5,37.7,33.0,100,64,23,27.36,27.24,11,1,11,0.00
2013-2-6,70.4,52.5,36.7,44.0,37.1,33.0,98,62,27,27.38,27.24,15,1,16,0.00
2013-2-7,71.0,50.3,31.7,43.0,33.1,26.0,98,59,21,27.44,27.30,10,1,10,0.00
2013-2-8,67.7,52.2,34.8,36.0,26.1,16.0,87,44,13,27.30,27.13,16,2,18,0.00
2013-2-9,51.9,42.6,27.4,37.0,28.9,21.0,94,61,31,27.36,27.14,15,2,16,0.04
2013-2-10,56.9,38.0,20.9,36.0,22.6,16.0,99,61,19,27.36,27.25,12,1,12,0.00
2013-2-11,52.0,34.9,21.2,36.0,28.7,18.0,97,80,37,27.47,27.28,17,1,17,0.20
2013-2-12,53.4,38.8,25.5,37.0,31.4,26.0,100,78,38,27.58,27.46,8,1,8,0.00
2013-2-13,60.9,40.5,21.9,33.0,26.3,21.0,99,64,21,27.51,27.38,9,1,10,0.00
2013-2-14,67.3,43.7,23.4,36.0,26.9,23.0,98,60,18,27.47,27.34,8,1,9,0.00
2013-2-15,72.8,51.3,33.4,33.0,24.2,14.0,86,43,10,27.56,27.44,14,2,14,0.00
2013-2-16,73.8,62.1,48.5,21.0,12.3,4.0,30,14,7,27.57,27.34,19,4,20,0.00
2013-2-17,73.7,53.1,27.8,26.0,14.6,4.0,68,27,6,27.34,27.17,15,2,16,0.00
2013-2-18,71.8,48.1,27.2,29.0,19.8,11.0,78,40,9,27.39,27.25,8,1,8,0.00
2013-2-19,71.5,53.0,31.8,29.0,19.3,11.0,72,33,10,27.28,27.07,17,2,17,0.00
2013-2-20,51.7,40.8,32.0,38.0,32.8,29.0,98,75,41,27.27,27.05,20,2,20,0.17
2013-2-21,53.1,42.4,30.9,40.0,33.1,29.0,100,72,44,27.36,27.26,10,1,10,0.36
2013-2-22,56.4,43.5,30.3,38.0,32.7,28.0,98,68,35,27.46,27.31,13,1,13,0.00
2013-2-23,65.3,44.3,26.4,33.0,26.8,18.0,97,60,17,27.46,27.17,10,1,10,0.00
2013-2-24,50.3,39.3,27.7,33.0,20.7,8.0,98,55,16,27.40,27.14,25,3,25,0.00
2013-2-25,58.9,40.0,20.1,26.0,18.8,16.0,86,47,19,27.52,27.36,8,1,9,0.00
2013-2-26,64.7,42.6,21.0,29.0,20.3,14.0,96,50,16,27.40,27.27,13,1,13,0.00
2013-2-27,64.3,45.1,25.2,23.0,13.9,4.0,79,35,9,27.51,27.40,12,2,12,0.00
2013-2-28,70.4,45.3,24.3,21.0,15.9,8.0,73,38,8,27.62,27.50,12,1,13,0.00
2013-3-1,75.3,50.3,26.6,26.0,18.7,11.0,70,35,10,27.64,27.50,13,1,13,0.00
2013-3-2,85.0,56.3,33.0,31.0,23.8,8.0,75,38,5,27.62,27.42,8,1,8,0.00
2013-3-3,80.1,59.8,32.4,36.0,23.9,14.0,81,34,8,27.46,27.27,14,2,14,0.00
2013-3-4,71.6,60.7,46.4,33.0,28.0,16.0,50,30,15,27.42,27.24,21,2,22,0.00
2013-3-5,80.4,59.8,40.2,33.0,28.3,21.0,66,35,11,27.45,27.31,13,1,13,0.00
2013-3-6,82.3,61.5,43.0,37.0,29.9,21.0,68,36,13,27.38,27.22,11,1,14,0.00
2013-3-7,80.2,58.6,35.6,35.0,25.8,14.0,77,36,8,27.32,27.20,14,2,15,0.00
2013-3-8,67.9,56.3,41.2,44.0,36.5,29.0,71,48,32,27.32,27.12,24,4,24,0.03
2013-3-9,52.7,46.3,39.5,38.0,35.1,32.0,78,65,51,27.41,27.30,13,2,14,0.01
2013-3-10,67.3,49.4,32.9,42.0,31.9,24.0,98,57,22,27.48,27.36,12,2,12,0.00
2013-3-11,74.0,51.5,30.0,33.0,28.1,24.0,84,47,17,27.50,27.33,10,1,10,0.00
2013-3-12,82.9,57.0,31.9,36.0,28.8,23.0,83,44,11,27.44,27.31,11,1,11,0.00
2013-3-13,90.3,64.2,37.1,37.0,25.2,16.0,73,32,7,27.48,27.34,10,1,12,0.00
2013-3-14,92.7,69.0,44.6,31.0,18.3,0.0,49,21,3,27.47,27.33,12,2,14,0.00
2013-3-15,93.9,67.7,42.6,28.0,19.9,-6.0,48,22,2,27.40,27.24,22,2,23,0.00
2013-3-16,89.2,67.5,39.8,29.0,18.6,0.0,56,22,3,27.30,27.09,16,2,16,0.00
2013-3-17,82.5,61.9,40.2,26.0,21.1,14.0,48,24,7,27.29,27.15,24,2,24,0.00
2013-3-18,83.0,62.0,40.2,33.0,23.6,11.0,59,27,7,27.35,27.24,12,1,12,0.00
2013-3-19,79.5,61.8,41.9,35.0,27.2,23.0,59,30,13,27.39,27.28,17,2,17,0.00
2013-3-20,82.6,63.4,43.3,32.0,27.1,23.0,56,29,11,27.40,27.23,16,1,16,0.00
2013-3-21,76.4,62.1,43.5,35.0,30.4,26.0,58,33,18,27.24,27.09,12,1,12,0.00
2013-3-22,79.7,65.3,43.1,36.0,30.0,24.0,59,29,15,27.19,27.04,18,2,18,0.00
2013-3-23,74.0,57.4,37.2,33.0,19.8,4.0,66,28,6,27.33,27.19,20,2,20,0.00
2013-3-24,76.6,54.8,31.0,16.0,7.4,0.0,44,19,5,27.36,27.20,15,2,15,0.00
2013-3-25,81.0,59.0,34.6,18.0,13.6,8.0,39,19,7,27.35,27.23,17,2,18,0.00
2013-3-26,86.0,65.2,42.0,23.0,14.5,4.0,41,17,4,27.34,27.17,14,1,14,0.00
2013-3-27,86.3,65.5,40.1,23.0,18.0,11.0,41,18,6,27.37,27.23,16,2,16,0.00
2013-3-28,85.1,65.9,40.3,32.0,20.8,14.0,44,20,7,27.40,27.29,15,2,15,0.00
2013-3-29,85.8,67.1,43.6,31.0,20.9,11.0,43,19,7,27.44,27.32,14,2,14,0.00
2013-3-30,83.7,65.9,47.3,26.0,21.6,14.0,38,20,7,27.42,27.27,12,1,14,0.00
2013-3-31,87.0,64.3,39.5,31.0,25.0,21.0,55,26,9,27.40,27.25,13,1,13,0.00
2013-4-1,82.5,64.2,40.6,35.0,27.0,21.0,54,27,14,27.37,27.22,17,2,17,0.00
2013-4-2,78.2,59.9,36.5,26.0,20.7,14.0,54,25,9,27.32,27.21,16,2,17,0.00
2013-4-3,84.7,61.6,36.2,28.0,23.6,18.0,56,27,10,27.39,27.28,11,1,12,0.00
2013-4-4,89.1,66.8,40.3,31.0,21.3,8.0,53,23,5,27.42,27.26,12,1,12,0.00
2013-4-5,87.3,69.5,46.5,29.0,25.6,23.0,42,21,10,27.35,27.20,18,2,18,0.00
2013-4-6,85.8,67.8,43.4,35.0,27.8,23.0,51,25,11,27.35,27.18,18,2,18,0.00
2013-4-7,86.5,67.7,46.0,36.0,28.6,23.0,58,27,10,27.27,27.11,13,1,13,0.00
2013-4-8,83.3,67.2,47.0,40.0,32.2,24.0,77,30,13,27.15,26.81,22,4,23,0.01
2013-4-9,64.2,52.7,41.4,46.0,34.6,21.0,97,57,21,27.25,26.99,17,2,17,0.08
2013-4-10,67.9,53.7,31.8,36.0,27.7,23.0,90,42,18,27.35,27.24,15,2,16,0.00
2013-4-11,80.2,58.9,32.9,35.0,26.8,21.0,82,36,13,27.35,27.12,13,1,13,0.00
2013-4-12,82.0,62.9,43.4,29.0,24.9,18.0,50,26,10,27.20,27.09,13,1,15,0.00
2013-4-13,85.6,65.6,38.6,31.0,23.8,18.0,58,25,9,27.24,27.08,13,2,15,0.00
2013-4-14,84.6,67.7,43.4,36.0,28.5,21.0,50,26,10,27.19,27.05,17,2,19,0.00
2013-4-15,87.2,73.5,60.0,37.0,29.7,21.0,36,21,9,27.18,27.06,19,3,19,0.00
2013-4-16,86.9,72.1,50.6,38.0,30.3,21.0,44,23,10,27.20,27.07,18,3,18,0.00
2013-4-17,67.1,59.0,46.2,39.0,25.0,11.0,52,29,13,27.36,27.16,27,3,30,0.00
2013-4-18,73.3,53.3,28.8,18.0,11.6,4.0,50,21,7,27.47,27.34,12,1,12,0.00
2013-4-19,82.1,60.4,35.6,11.0,3.3,-13.0,34,13,2,27.48,27.28,19,2,19,0.00
2013-4-20,85.1,61.9,33.8,18.0,11.1,4.0,38,16,5,27.34,27.23,17,2,17,0.00
2013-4-21,91.1,65.1,37.9,26.0,16.5,4.0,46,20,4,27.40,27.27,14,1,14,0.00
2013-4-22,92.1,68.8,42.1,26.0,16.3,0.0,41,17,3,27.35,27.14,14,1,16,0.00
2013-4-23,87.6,66.8,41.0,28.0,19.4,11.0,44,20,6,27.27,27.15,18,2,18,0.00
2013-4-24,92.0,71.9,45.9,31.0,22.2,8.0,47,19,4,27.31,27.17,12,1,13,0.00
2013-4-25,85.6,71.1,47.9,36.0,24.8,11.0,40,20,6,27.40,27.24,19,2,21,0.00
2013-4-26,88.5,64.9,38.2,32.0,25.3,18.0,64,27,8,27.46,27.33,12,1,12,0.00
2013-4-27,92.0,69.3,42.0,33.0,22.5,11.0,55,22,5,27.44,27.25,11,1,11,0.00
2013-4-28,94.8,72.2,43.7,33.0,17.5,8.0,53,18,4,27.30,27.12,13,1,13,0.00
2013-4-29,98.5,73.5,44.1,29.0,14.9,0.0,44,15,2,27.23,27.05,14,1,14,0.00
2013-4-30,97.0,75.9,46.4,32.0,18.3,8.0,42,15,4,27.21,27.08,15,1,15,0.00
2013-5-1,92.2,70.8,44.4,35.0,19.9,8.0,49,19,4,27.36,27.20,18,1,20,0.00
2013-5-2,92.2,72.3,45.1,35.0,18.6,8.0,51,17,5,27.45,27.33,16,2,16,0.00
2013-5-3,89.8,72.5,59.9,21.0,16.6,8.0,21,12,5,27.42,27.17,24,4,24,0.00
2013-5-4,93.9,73.1,46.8,32.0,19.1,8.0,41,16,5,27.22,27.07,13,1,14,0.00
2013-5-5,90.3,74.4,50.2,38.0,27.4,14.0,42,19,6,27.32,27.14,14,2,14,0.00
2013-5-6,85.4,69.7,51.5,54.0,41.2,29.0,95,43,14,27.35,27.23,13,1,13,0.02
2013-5-7,85.8,66.8,45.5,42.0,33.7,21.0,68,35,10,27.36,27.21,14,2,15,0.00
2013-5-8,82.5,64.7,43.7,43.0,35.2,28.0,74,38,15,27.39,27.26,11,1,11,0.00
2013-5-9,86.3,67.7,44.7,44.0,32.7,16.0,73,33,8,27.36,27.23,19,1,19,0.00
2013-5-10,88.3,68.5,44.7,40.0,33.1,26.0,61,30,11,27.42,27.28,18,1,18,0.00
2013-5-11,88.7,75.0,55.1,39.0,34.1,26.0,45,24,11,27.46,27.36,15,2,17,0.00
2013-5-12,92.0,77.5,62.0,39.0,31.9,24.0,32,20,9,27.50,27.31,19,2,19,0.00
2013-5-13,96.0,77.7,53.5,35.0,25.7,14.0,38,17,6,27.44,27.27,14,2,14,0.00
2013-5-14,92.1,73.3,60.5,47.0,32.1,18.0,53,25,11,27.36,27.33,9,1,10,0.00
2013-5-18,91.5,83.2,66.4,33.0,24.3,18.0,27,12,7,27.31,27.19,16,3,16,0.00
2013-5-19,91.3,73.1,50.7,44.0,33.5,21.0,62,28,8,27.31,27.16,18,1,20,0.00
2013-5-20,90.3,74.3,48.6,43.0,28.4,18.0,58,23,8,27.28,27.17,20,2,23,0.00
2013-5-21,96.6,73.3,45.4,32.0,18.7,4.0,45,17,3,27.30,27.14,10,1,11,0.00
2013-5-22,100.6,76.2,48.3,33.0,21.3,14.0,43,17,5,27.22,27.06,12,1,13,0.00
2013-5-23,99.5,78.3,49.2,44.0,25.6,11.0,57,19,4,27.26,27.14,16,1,16,0.00
2013-5-24,99.5,78.3,52.2,42.0,25.1,0.0,49,20,2,27.32,27.19,13,1,14,0.00
2013-5-25,100.0,78.5,50.2,41.0,23.1,0.0,51,19,2,27.32,27.21,18,1,18,0.00
2013-5-26,96.9,76.0,47.9,32.0,15.2,-6.0,42,15,2,27.34,27.22,19,1,19,0.00
2013-5-27,98.2,74.4,46.4,28.0,13.5,-6.0,38,14,2,27.30,27.10,14,1,14,0.00
2013-5-28,95.8,76.5,49.6,33.0,22.0,8.0,37,16,4,27.18,27.01,14,2,16,0.00
2013-5-29,93.8,76.7,49.7,48.0,32.9,28.0,51,23,10,27.16,27.05,17,1,17,0.00
2013-5-30,98.7,81.1,58.0,53.5,41.4,29.0,66,30,9,27.24,27.13,15,1,15,0.00
2013-5-31,99.5,82.0,60.4,58.0,43.5,26.0,70,31,9,27.27,27.15,14,1,14,0.00
2013-6-1,108.0,83.6,54.7,43.0,32.5,11.0,52,22,3,27.24,27.09,11,1,11,0.00
2013-6-2,107.3,87.0,59.0,47.5,34.3,24.0,49,19,6,27.21,27.07,18,1,18,0.00
2013-6-3,103.8,87.4,57.2,42.0,25.3,8.0,44,14,3,27.25,27.13,16,1,16,0.00
2013-6-4,103.6,85.0,61.3,45.0,32.6,21.0,43,18,6,27.27,27.16,14,1,16,0.00
2013-6-5,100.8,80.4,55.0,39.0,24.2,4.0,44,18,3,27.28,27.15,15,1,15,0.00
2013-6-6,104.9,81.2,51.8,37.0,25.9,23.0,46,16,6,27.24,27.10,13,1,14,0.00
2013-6-7,107.5,85.6,57.2,39.0,26.0,16.0,41,15,4,27.22,27.05,19,1,19,0.00
2013-6-8,103.8,86.3,57.1,39.0,24.4,14.0,36,14,4,27.24,27.14,18,2,18,0.00
2013-6-9,104.0,84.8,62.1,45.0,25.6,0.0,41,16,2,27.31,27.17,14,1,14,0.00
2013-6-10,106.8,85.2,55.9,39.0,25.5,8.0,40,15,3,27.31,27.16,17,1,17,0.00
2013-6-11,108.0,86.8,60.4,39.0,22.5,4.0,39,13,2,27.30,27.16,15,2,15,0.00
2013-6-12,108.5,87.3,58.5,38.0,28.4,23.0,39,14,5,27.34,27.18,20,1,20,0.00
2013-6-13,103.4,87.1,64.4,50.0,39.5,32.0,43,21,10,27.33,27.16,17,2,18,0.00
2013-6-14,104.0,87.0,67.9,56.0,47.0,40.0,54,28,14,27.29,27.12,14,1,14,0.00
2013-6-15,102.0,83.5,67.4,72.3,53.3,41.0,84,39,18,27.31,27.18,19,1,19,0.34
2013-6-16,103.6,84.7,62.6,65.5,49.6,29.0,97,41,10,27.33,27.20,14,1,14,0.00
2013-6-17,104.6,83.1,57.2,49.0,35.2,23.0,67,25,6,27.34,27.18,13,1,13,0.00
2013-6-18,106.7,82.6,55.2,43.0,19.0,-13.0,55,19,1,27.28,27.13,15,1,15,0.00
2013-6-19,106.4,82.1,53.2,33.0,22.7,0.0,43,16,2,27.21,27.08,15,1,17,0.00
2013-6-20,106.0,83.8,55.6,42.0,20.0,0.0,45,15,2,27.25,27.13,13,1,13,0.00
2013-6-21,105.5,84.4,56.1,44.0,24.4,0.0,49,16,2,27.28,27.15,15,1,15,0.00
2013-6-22,104.5,83.6,55.4,40.0,24.0,8.0,42,16,3,27.28,27.13,17,1,17,0.00
2013-6-23,104.1,82.7,53.5,38.0,24.6,11.0,42,16,4,27.25,27.09,16,1,17,0.00
2013-6-24,103.9,82.9,55.2,41.0,27.4,11.0,43,17,4,27.27,27.15,18,2,18,0.00
2013-6-25,102.8,81.3,55.0,45.0,23.7,0.0,50,18,2,27.34,27.22,12,1,12,0.00
2013-6-26,105.5,82.1,55.8,37.0,21.6,0.0,37,14,2,27.42,27.28,14,1,14,0.00
2013-6-27,107.2,85.3,58.7,39.0,31.5,24.0,32,17,7,27.44,27.26,13,1,14,0.00
2013-6-28,110.8,88.1,62.4,42.0,34.2,28.0,39,18,6,27.35,27.18,8,1,9,0.00
2013-6-29,112.7,94.3,73.6,46.0,38.0,32.0,28,16,7,27.28,27.14,16,2,17,0.00
2013-6-30,109.6,92.4,75.5,66.0,47.5,39.0,71,25,10,27.38,27.08,16,2,19,0.02
2013-7-1,107.3,90.4,74.5,67.0,55.0,47.5,63,34,15,27.31,27.17,17,2,17,0.00
2013-7-2,104.8,88.4,69.8,63.5,55.5,50.5,81,36,18,27.44,27.22,20,2,20,0.02
2013-7-3,104.4,91.4,77.0,54.0,49.6,44.0,44,26,15,27.31,27.10,18,2,18,0.00
2013-7-4,103.5,92.5,77.9,57.5,51.8,46.0,46,27,16,27.26,27.10,19,2,19,0.00
2013-7-5,101.8,83.3,69.4,69.3,61.3,52.0,83,51,25,27.30,27.13,22,2,22,0.01
2013-7-6,106.9,86.6,64.7,63.0,57.6,49.0,83,44,16,27.24,27.08,10,1,10,0.00
2013-7-7,112.3,86.8,70.2,72.3,59.1,50.0,84,44,14,27.24,27.10,13,1,18,0.31
2013-7-8,107.5,92.0,77.9,62.5,57.2,52.0,55,33,17,27.32,27.20,15,2,15,0.00
2013-7-9,100.7,90.1,75.0,71.0,62.7,59.0,79,42,28,27.43,27.24,20,2,20,0.01
2013-7-10,100.7,81.9,69.6,71.3,66.8,61.5,94,63,29,27.41,27.26,11,1,11,0.03
2013-7-11,94.3,81.0,70.9,73.0,67.7,62.5,97,67,36,27.38,27.26,13,1,13,0.08
2013-7-12,95.7,81.7,72.9,71.0,65.2,60.0,88,60,31,27.39,27.22,12,1,12,0.14
2013-7-13,101.0,85.6,70.6,69.7,62.8,57.5,88,51,26,27.36,27.22,15,1,15,0.00
2013-7-14,103.9,90.1,74.7,65.0,59.8,55.0,67,39,22,27.33,27.16,17,1,18,0.00
2013-7-15,104.8,88.1,71.4,69.0,60.4,54.0,75,43,20,27.27,27.11,16,2,16,0.01
2013-7-16,88.1,78.1,72.7,70.5,65.4,62.0,83,66,46,27.41,27.27,15,2,15,0.04
2013-7-17,100.1,86.3,72.6,66.0,57.7,50.0,81,42,21,27.41,27.28,9,2,9,0.00
2013-7-18,97.8,85.4,77.6,63.0,56.2,53.0,57,38,23,27.38,27.23,9,3,9,0.00
2013-7-19,96.8,84.5,78.2,62.0,59.8,57.0,54,44,28,27.34,27.19,9,2,9,0.00
2013-7-20,97.8,78.6,69.2,71.0,65.1,58.0,96,67,28,27.31,27.16,9,1,9,0.06
2013-7-21,94.7,81.8,69.6,71.0,65.4,60.0,98,63,33,27.34,27.23,9,1,9,0.00
2013-7-22,96.0,82.9,67.8,69.0,62.6,58.0,93,55,31,27.39,27.26,9,1,9,0.00
2013-7-23,98.2,85.2,68.8,63.0,59.5,56.0,78,46,27,27.39,27.23,9,2,9,0.00
2013-7-24,96.3,82.4,73.4,73.0,63.1,59.0,95,55,33,27.34,27.24,9,1,9,0.04
2013-7-25,94.3,79.4,70.9,73.0,69.1,63.0,96,74,41,27.41,27.32,8,0,8,0.02
2013-7-26,98.7,78.1,69.2,73.0,68.1,60.0,97,77,31,27.49,27.39,9,1,9,0.14
2013-7-27,97.5,82.3,68.5,71.0,65.6,61.0,98,63,31,27.42,27.25,9,1,9,0.00
2013-7-28,103.5,91.8,66.4,69.0,54.1,46.0,96,32,18,27.30,27.17,9,1,9,0.00
2013-7-29,102.8,84.6,63.7,55.0,48.5,44.0,68,33,15,27.40,27.28,9,1,9,0.00
2013-7-30,105.0,86.8,65.5,59.0,51.8,47.0,66,34,16,27.49,27.34,9,1,9,0.00
2013-7-31,105.0,88.6,72.6,59.0,54.5,49.0,52,33,17,27.44,27.32,9,1,9,0.00
2013-8-1,95.3,85.9,74.2,60.0,57.9,56.0,60,40,29,27.39,27.29,11,1,12,0.00
2013-8-2,95.5,82.1,70.6,65.0,61.3,59.0,69,51,33,27.36,27.29,9,1,9,0.00
2013-8-3,104.0,86.2,66.0,63.0,57.1,50.0,82,43,18,27.39,27.26,11,1,11,0.00
2013-8-4,95.7,84.7,71.9,62.0,56.2,51.0,57,40,23,27.41,27.29,9,0,9,0.00
2013-8-5,100.0,80.7,68.1,67.0,58.4,52.0,95,52,21,27.45,27.26,16,2,16,0.20
2013-8-6,88.8,76.0,67.3,69.0,64.8,58.0,97,72,43,27.42,27.33,11,1,11,0.00
2013-8-7,96.3,79.2,63.0,66.0,57.9,47.0,99,56,19,27.42,27.29,16,1,16,0.00
2013-8-8,102.7,79.8,60.5,59.0,47.3,33.0,82,40,11,27.36,27.22,10,1,10,0.00
2013-8-9,105.7,82.4,55.4,49.0,42.8,36.0,67,31,10,27.34,27.22,16,1,16,0.00
2013-8-10,104.2,82.0,65.6,47.0,42.0,36.0,48,29,11,27.40,27.26,8,1,8,0.00
2013-8-11,98.4,89.2,70.5,71.0,56.7,36.0,79,35,17,27.37,27.22,18,3,18,0.27
2013-8-12,104.3,93.9,67.6,61.0,49.5,32.0,80,25,13,27.33,27.21,13,2,13,0.00
2013-8-13,105.5,85.6,62.2,50.0,40.6,35.0,59,25,10,27.39,27.22,10,1,10,0.00
2013-8-14,107.8,86.3,68.5,60.0,50.8,42.0,53,32,14,27.36,27.21,12,1,12,0.00
2013-8-15,105.8,89.8,72.6,61.0,53.9,47.0,60,33,15,27.38,27.23,9,1,9,0.00
2013-8-16,109.3,90.2,69.9,59.0,52.5,42.0,60,31,11,27.37,27.23,12,1,13,0.00
2013-8-17,110.3,90.4,68.8,61.0,53.3,44.0,70,34,12,27.38,27.20,13,1,14,0.00
2013-8-18,109.1,90.0,78.2,55.0,51.2,41.0,42,28,11,27.39,27.27,18,1,18,0.00
2013-8-19,106.8,90.2,75.0,57.0,51.5,44.0,48,29,13,27.37,27.22,7,1,15,0.00
2013-8-20,104.0,83.8,73.2,71.0,59.5,50.0,89,48,19,27.39,27.24,17,1,17,0.28
2013-8-21,98.8,83.4,70.6,66.0,60.0,53.0,79,49,24,27.37,27.24,12,1,12,0.00
2013-8-22,102.4,88.7,69.8,65.0,57.4,51.0,78,39,19,27.37,27.21,19,2,19,0.01
2013-8-23,101.0,91.4,75.1,61.0,55.7,50.0,63,32,21,27.30,27.16,10,2,10,0.00
2013-8-24,93.0,80.8,69.5,65.0,60.4,56.0,84,53,33,27.38,27.24,11,3,11,0.07
2013-8-25,94.6,79.3,70.2,72.0,67.7,61.0,96,72,34,27.39,27.29,13,1,13,0.25
2013-8-26,101.0,81.6,69.4,73.0,67.3,57.0,100,69,25,27.38,27.22,21,1,21,0.15
2013-8-27,100.8,84.2,65.1,69.0,58.5,49.0,100,51,19,27.31,27.17,13,1,13,0.01
2013-8-28,98.7,86.0,72.7,66.0,60.0,56.0,79,44,26,27.39,27.22,18,2,18,0.00
2013-8-29,88.8,77.4,69.6,71.0,67.2,65.0,97,73,48,27.49,27.37,13,0,13,0.96
2013-8-30,89.3,79.0,70.8,72.0,67.8,63.0,98,72,44,27.46,27.35,5,0,6,0.01
2013-8-31,98.6,81.7,66.5,67.0,64.2,60.0,95,59,30,27.40,27.24,13,1,13,0.00
2013-9-1,101.8,83.8,65.9,68.0,61.8,54.0,95,53,28,27.35,27.20,13,1,13,0.00
2013-9-2,98.7,82.3,70.1,65.0,60.8,53.0,78,52,22,27.40,27.20,11,1,11,0.00
2013-9-3,102.5,79.0,68.8,69.0,62.3,56.0,89,61,22,27.36,27.26,24,1,24,0.44
2013-9-4,101.0,82.6,65.3,66.0,57.2,48.0,91,50,18,27.37,27.25,12,1,12,0.00
2013-9-5,103.3,87.8,69.8,59.0,51.3,46.0,66,32,15,27.36,27.26,14,2,14,0.00
2013-9-6,102.3,82.6,66.9,65.0,57.8,49.0,81,47,19,27.39,27.23,16,1,17,0.06
2013-9-7,88.0,76.9,69.2,67.0,63.7,59.0,90,66,39,27.40,27.27,9,1,9,0.02
2013-9-8,87.5,75.5,69.3,70.0,65.1,60.0,96,72,44,27.32,27.20,10,1,10,0.10
2013-9-9,86.5,73.7,67.8,71.0,66.8,64.0,98,82,50,27.26,27.15,10,1,10,0.68
2013-9-10,86.3,72.2,62.2,68.0,62.3,57.0,99,76,40,27.34,27.23,11,1,12,0.36
2013-9-11,93.7,75.6,60.4,68.0,58.7,52.0,100,63,26,27.39,27.26,7,0,8,0.00
2013-9-12,97.7,79.7,60.6,62.0,58.1,52.0,92,53,26,27.33,27.15,15,1,15,0.00
2013-9-13,97.5,84.4,71.7,65.0,59.9,48.0,73,46,20,27.23,27.06,14,1,15,0.00
2013-9-14,101.0,84.2,66.7,64.0,58.2,49.0,84,45,19,27.18,27.06,10,1,11,0.00
2013-9-15,102.2,87.2,74.1,59.0,55.3,49.0,56,36,19,27.23,27.14,14,2,14,0.00
2013-9-16,100.8,88.3,80.2,60.0,57.2,52.0,47,36,21,27.28,27.16,15,3,16,0.00
2013-9-17,102.8,88.8,79.6,60.0,56.8,50.0,48,36,21,27.25,27.09,15,2,15,0.00
2013-9-18,101.0,82.9,64.8,60.0,49.0,39.0,72,36,13,27.22,27.08,9,1,9,0.00
2013-9-19,100.4,80.3,58.3,55.0,47.7,43.0,74,36,16,27.23,27.10,11,1,11,0.00
2013-9-20,100.0,81.0,59.3,56.0,50.1,45.0,68,37,18,27.28,27.15,10,1,10,0.00
2013-9-21,98.7,83.3,65.0,59.0,53.8,47.0,69,40,19,27.29,27.11,12,1,13,0.00
2013-9-22,93.5,80.0,63.2,64.0,53.4,38.0,77,43,23,27.20,27.05,17,2,17,0.00
2013-9-23,92.7,70.6,48.8,46.0,40.4,38.0,72,38,17,27.34,27.19,10,0,10,0.00
2013-9-24,98.3,73.8,49.8,45.0,37.7,31.0,66,33,10,27.38,27.21,10,1,10,0.00
2013-9-25,96.1,73.2,50.3,44.0,31.7,24.0,62,28,9,27.28,27.09,17,1,17,0.00
2013-9-26,93.8,77.8,48.4,54.0,39.8,28.0,55,29,16,27.19,27.07,15,2,15,0.00
2013-9-27,82.3,70.3,50.8,57.0,45.7,32.0,63,43,26,27.36,27.16,12,1,12,0.00
2013-9-28,90.4,66.5,42.6,42.0,36.7,32.0,69,38,17,27.44,27.33,9,1,9,0.00
2013-9-29,93.0,68.5,46.9,45.0,38.7,36.0,71,39,14,27.47,27.33,10,0,10,0.00
2013-9-30,93.6,66.8,46.3,44.0,34.9,28.0,73,37,10,27.40,27.25,7,0,7,0.00
2013-10-1,93.5,67.6,42.7,42.0,33.9,29.0,66,34,12,27.37,27.26,9,0,9,0.00
2013-10-2,91.1,71.0,47.2,47.0,40.4,36.0,73,37,16,27.37,27.22,10,1,10,0.00
2013-10-3,93.3,71.2,51.3,54.0,41.0,24.0,80,39,12,27.30,27.12,10,1,10,0.00
2013-10-4,87.0,68.3,46.3,48.0,39.1,24.0,77,39,18,27.38,27.24,13,1,13,0.00
2013-10-5,85.5,63.1,42.5,29.0,22.7,14.0,55,25,8,27.48,27.38,10,1,11,0.00
2013-10-6,90.3,72.2,43.0,24.0,20.5,16.0,38,15,7,27.48,27.36,15,2,15,0.00
2013-10-7,95.1,74.4,52.7,38.0,28.1,21.0,37,19,10,27.42,27.26,10,1,10,0.00
2013-10-8,90.5,67.8,46.3,39.0,31.7,28.0,57,30,13,27.33,27.18,11,1,14,0.00
2013-10-9,88.5,69.3,44.2,44.0,36.2,28.0,61,33,15,27.23,27.09,18,2,19,0.00
2013-10-10,71.6,62.4,49.5,50.0,43.7,38.0,69,51,36,27.34,27.15,17,2,17,0.00
2013-10-11,78.7,57.1,38.4,46.0,38.2,32.0,92,55,21,27.38,27.27,9,1,9,0.00
2013-10-12,86.1,59.7,37.4,40.0,34.2,31.0,80,45,15,27.36,27.22,8,0,10,0.00
2013-10-13,89.0,67.5,43.6,46.0,37.9,33.0,72,39,16,27.38,27.25,15,1,15,0.00
2013-10-14,83.4,62.9,42.8,47.0,36.8,32.0,81,43,19,27.43,27.29,12,1,12,0.00
2013-10-15,84.5,61.6,40.2,45.0,32.9,26.0,74,39,16,27.36,27.23,14,1,14,0.00
2013-10-16,80.9,55.8,35.1,35.0,21.7,11.0,70,33,7,27.45,27.34,11,1,11,0.00
2013-10-17,82.1,54.6,30.6,28.0,19.9,16.0,61,31,8,27.45,27.28,4,0,7,0.00
2013-10-18,82.8,57.7,32.3,28.0,23.6,18.0,62,31,12,27.40,27.30,9,1,9,0.00
2013-10-19,87.6,58.6,35.1,29.0,20.2,14.0,58,28,7,27.44,27.30,8,1,8,0.00
2013-10-20,85.1,56.9,31.7,26.0,18.3,14.0,57,28,7,27.38,27.23,13,1,13,0.00
2013-10-21,86.5,58.5,33.6,29.0,19.3,14.0,57,27,7,27.40,27.30,10,0,10,0.00
2013-10-22,91.3,67.6,37.2,28.0,20.9,14.0,48,21,6,27.43,27.29,11,2,12,0.00
2013-10-23,93.0,75.2,51.3,33.0,27.1,23.0,37,18,8,27.34,27.23,11,1,11,0.00
2013-10-24,91.5,65.5,42.1,36.0,28.6,24.0,56,29,10,27.39,27.24,11,1,12,0.00
2013-10-25,87.0,62.2,40.1,33.0,27.8,24.0,61,31,10,27.45,27.36,8,0,8,0.00
2013-10-26,89.0,64.7,36.6,35.0,27.1,23.0,67,30,10,27.50,27.36,9,1,9,0.00
2013-10-27,90.5,68.5,48.6,39.0,27.7,23.0,49,24,10,27.39,27.17,8,1,9,0.00
2013-10-28,82.8,63.1,42.4,39.0,30.4,23.0,65,33,13,27.32,27.21,17,1,17,0.00
2013-10-29,83.3,66.2,44.5,38.0,33.9,28.0,65,33,14,27.34,27.20,17,2,17,0.00
2013-10-30,69.6,54.0,38.6,42.0,34.2,26.0,79,51,24,27.40,27.29,15,1,16,0.00
2013-10-31,75.5,56.0,29.1,31.0,24.5,16.0,78,34,11,27.50,27.36,10,1,10,0.00
2013-11-1,80.3,53.2,28.4,28.0,23.0,18.0,69,36,12,27.53,27.37,8,0,8,0.00
2013-11-2,88.0,71.9,43.7,50.0,20.5,14.0,74,17,7,27.44,27.24,23,2,24,0.02
2013-11-3,81.0,63.5,45.5,57.0,47.4,39.0,98,62,25,27.36,27.14,14,1,14,0.06
2013-11-4,79.5,62.1,41.7,51.0,44.1,39.0,94,58,26,27.24,27.10,13,1,13,0.00
2013-11-5,72.5,57.0,41.5,48.0,40.9,35.0,88,59,27,27.50,27.22,19,1,19,0.00
2013-11-6,77.5,60.0,37.1,37.0,22.2,0.0,93,32,6,27.60,27.49,13,2,14,0.00
2013-11-7,81.6,69.3,60.6,28.0,18.6,4.0,22,14,9,27.57,27.41,10,3,18,0.00
2013-11-8,83.6,61.3,40.7,36.0,30.7,24.0,59,34,16,27.47,27.33,11,0,11,0.00
2013-11-9,83.5,59.5,38.0,39.0,33.8,29.0,74,42,18,27.49,27.37,9,0,9,0.00
2013-11-10,87.6,61.4,38.5,39.0,33.9,31.0,74,41,15,27.51,27.36,10,0,10,0.00
2013-11-11,89.5,65.4,40.0,41.0,34.9,31.0,72,38,16,27.47,27.35,11,1,12,0.00
2013-11-12,84.7,73.7,54.2,43.0,37.3,29.0,44,27,18,27.55,27.45,24,4,24,0.00
2013-11-13,77.5,67.2,61.2,43.0,41.1,39.0,47,40,29,27.53,27.37,22,4,24,0.00
2013-11-14,82.0,62.9,44.7,45.0,38.6,31.0,75,44,20,27.41,27.25,13,1,13,0.00
2013-11-15,75.7,61.8,44.0,50.0,43.2,32.0,68,52,35,27.26,27.06,12,1,12,0.00
2013-11-16,77.0,64.8,54.6,50.0,44.0,35.0,75,50,22,27.30,27.12,14,2,14,0.00
2013-11-17,76.2,60.4,45.5,48.0,43.1,39.0,88,57,31,27.44,27.30,10,1,10,0.00
2013-11-18,81.0,59.7,44.2,47.0,41.1,36.0,87,56,24,27.46,27.33,10,0,11,0.00
2013-11-19,79.5,56.3,37.5,45.0,36.8,29.0,91,54,16,27.41,27.22,11,0,11,0.00
2013-11-20,74.9,60.0,39.4,43.0,38.0,33.0,79,48,26,27.30,27.19,13,1,13,0.00
2013-11-21,73.8,60.9,45.2,50.0,41.4,37.0,75,51,29,27.33,27.24,12,0,12,0.00
2013-11-22,65.4,55.8,47.4,56.0,50.0,46.0,98,83,55,27.34,27.19,10,1,11,0.36
2013-11-23,50.5,47.6,46.0,48.0,45.5,43.0,100,93,77,27.44,27.32,15,2,15,1.34
2013-11-24,61.5,50.3,44.9,43.0,40.3,37.0,89,71,45,27.51,27.41,12,2,13,0.00
2013-11-25,60.4,45.7,32.5,42.0,38.3,32.0,98,78,46,27.57,27.47,9,1,10,0.00
2013-11-26,65.2,54.2,36.9,41.0,32.5,26.0,98,47,27,27.61,27.49,18,3,19,0.00
2013-11-27,61.8,54.8,51.7,26.0,24.3,23.0,35,31,24,27.52,27.38,15,4,21,0.00
2013-11-28,74.2,57.2,41.2,38.0,30.6,24.0,84,39,22,27.47,27.34,14,1,14,0.00
2013-11-29,75.7,53.3,35.6,45.0,39.6,35.0,98,67,27,27.54,27.41,7,0,7,0.00
2013-11-30,71.8,52.7,38.7,48.0,43.6,39.0,99,75,37,27.54,27.42,5,0,5,0.03
2013-12-1,71.7,52.9,40.8,50.0,44.1,40.0,98,77,36,27.58,27.47,6,0,6,0.00
2013-12-2,72.3,49.0,33.0,47.0,37.4,29.0,100,72,22,27.53,27.30,6,0,6,0.00
2013-12-3,73.8,52.1,34.2,47.0,35.4,21.0,99,63,15,27.32,27.12,9,0,9,0.00
2013-12-4,69.3,58.3,45.5,47.0,41.2,35.0,92,56,29,27.29,27.15,13,2,13,0.04
2013-12-5,50.2,43.5,29.3,45.0,37.2,28.0,97,79,55,27.44,27.25,7,1,7,0.21
2013-12-6,54.3,36.4,24.1,38.0,26.7,23.0,100,74,31,27.52,27.41,8,0,9,0.00
2013-12-7,58.3,39.5,22.1,37.0,26.0,18.0,100,65,22,27.44,27.32,12,1,12,0.00
2013-12-8,55.6,45.4,33.3,40.0,36.5,29.0,85,72,50,27.47,27.36,9,0,9,0.00
2013-12-9,42.7,33.8,25.7,36.0,28.0,24.0,94,79,61,27.62,27.42,3,0,3,0.00
2013-12-10,53.7,34.7,25.1,28.0,24.6,18.0,93,69,26,27.60,27.45,6,0,6,0.01
2013-12-11,74.1,53.1,29.6,40.0,32.5,26.0,87,51,28,27.54,27.44,17,2,17,0.00
2013-12-12,72.9,60.1,36.9,42.0,34.3,29.0,86,40,29,27.53,27.38,16,2,16,0.00
2013-12-13,62.6,42.8,28.8,40.0,31.6,29.0,99,70,32,27.54,27.43,8,0,8,0.01
2013-12-14,66.8,46.3,26.7,38.0,28.1,23.0,99,57,20,27.63,27.51,10,1,10,0.00
2013-12-15,69.9,54.2,38.4,31.0,26.2,23.0,67,36,19,27.62,27.51,9,1,11,0.00
2013-12-16,77.2,51.5,33.3,32.0,29.4,26.0,80,48,15,27.58,27.47,8,1,8,0.00
2013-12-17,82.0,58.7,32.8,35.0,26.6,18.0,82,38,12,27.59,27.43,10,1,10,0.00
2013-12-18,79.5,56.9,40.0,33.0,28.8,21.0,65,39,11,27.46,27.24,5,0,5,0.00
2013-12-19,70.7,52.3,33.6,36.0,28.9,23.0,82,46,17,27.26,27.09,14,1,14,0.00
2013-12-20,54.2,46.1,40.7,44.0,38.4,29.0,95,76,49,27.21,27.02,22,1,23,0.33
2013-12-21,52.9,45.6,36.8,45.0,39.4,35.0,99,81,56,27.42,27.19,15,1,15,0.16
2013-12-22,59.3,42.5,30.7,45.0,36.2,31.0,100,82,44,27.62,27.41,6,0,6,0.00
2013-12-23,65.8,49.8,31.7,39.0,29.8,21.0,98,54,20,27.67,27.57,16,2,16,0.00
2013-12-24,69.7,53.3,34.5,35.0,26.3,18.0,88,40,19,27.58,27.46,16,2,18,0.00
2013-12-25,68.3,50.4,29.0,36.0,29.1,24.0,96,51,22,27.60,27.48,17,2,17,0.00
2013-12-26,63.9,55.9,49.9,26.0,22.6,16.0,36,27,21,27.58,27.45,20,4,20,0.00
2013-12-27,66.4,57.8,48.0,23.0,19.9,16.0,32,22,16,27.56,27.45,17,4,17,0.00
2013-12-28,64.8,48.8,28.6,33.0,24.4,14.0,71,41,19,27.50,27.32,13,1,13,0.00
2013-12-29,65.8,46.1,28.7,35.0,29.8,26.0,92,58,23,27.50,27.32,9,1,9,0.00
2013-12-30,67.5,44.1,26.6,35.0,28.0,24.0,95,60,21,27.61,27.49,8,0,8,0.00
2013-12-31,73.2,46.0,26.9,31.0,25.9,21.0,90,54,14,27.59,27.43,6,0,6,0.00
2014-1-1,70.7,44.7,26.2,33.0,27.0,24.0,94,58,18,27.52,27.41,6,0,6,0.00
2014-1-2,74.3,57.7,31.6,33.0,25.5,23.0,85,36,15,27.53,27.41,17,3,17,0.00